sensor_id;sensor_type;location;lat;lon;timestamp;P1;durP1;ratioP1;P2;durP2;ratioP2
5819;SDS011;2936;47.348;9.640;2023-09-18T00:00:22;7.20;;;1.43;;
5819;SDS011;2936;47.348;9.640;2023-09-18T00:02:50;5.10;;;2.27;;
5819;SDS011;2936;47.348;9.640;2023-09-18T00:05:17;2.00;;;1.90;;
5819;SDS011;2936;47.348;9.640;2023-09-18T00:07:45;6.00;;;2.90;;
5819;SDS011;2936;47.348;9.640;2023-09-18T00:10:13;2.10;;;2.00;;
5819;SDS011;2936;47.348;9.640;2023-09-18T00:12:40;11.20;;;3.40;;
5819;SDS011;2936;47.348;9.640;2023-09-18T00:15:09;2.90;;;2.37;;
5819;SDS011;2936;47.348;9.640;2023-09-18T00:17:37;5.07;;;2.33;;
5819;SDS011;2936;47.348;9.640;2023-09-18T00:20:05;13.30;;;2.37;;
5819;SDS011;2936;47.348;9.640;2023-09-18T00:22:33;1.87;;;1.77;;
5819;SDS011;2936;47.348;9.640;2023-09-18T00:25:01;1.93;;;1.83;;
5819;SDS011;2936;47.348;9.640;2023-09-18T00:27:28;8.13;;;1.80;;
5819;SDS011;2936;47.348;9.640;2023-09-18T00:29:58;6.53;;;2.20;;
5819;SDS011;2936;47.348;9.640;2023-09-18T00:32:27;14.10;;;2.67;;
5819;SDS011;2936;47.348;9.640;2023-09-18T00:34:55;12.33;;;1.77;;
5819;SDS011;2936;47.348;9.640;2023-09-18T00:37:22;4.40;;;2.27;;
5819;SDS011;2936;47.348;9.640;2023-09-18T00:39:50;3.50;;;2.13;;
5819;SDS011;2936;47.348;9.640;2023-09-18T00:42:17;5.73;;;2.30;;
5819;SDS011;2936;47.348;9.640;2023-09-18T00:44:47;4.93;;;2.37;;
5819;SDS011;2936;47.348;9.640;2023-09-18T00:47:15;2.40;;;1.77;;
5819;SDS011;2936;47.348;9.640;2023-09-18T00:49:46;20.57;;;2.67;;
5819;SDS011;2936;47.348;9.640;2023-09-18T00:52:14;6.80;;;2.90;;
5819;SDS011;2936;47.348;9.640;2023-09-18T00:54:42;4.70;;;2.67;;
5819;SDS011;2936;47.348;9.640;2023-09-18T00:57:11;1.70;;;1.60;;
5819;SDS011;2936;47.348;9.640;2023-09-18T00:59:39;6.10;;;3.00;;
5819;SDS011;2936;47.348;9.640;2023-09-18T01:02:07;3.43;;;2.30;;
5819;SDS011;2936;47.348;9.640;2023-09-18T01:04:34;2.50;;;1.70;;
5819;SDS011;2936;47.348;9.640;2023-09-18T01:07:04;2.03;;;1.83;;
5819;SDS011;2936;47.348;9.640;2023-09-18T01:09:32;9.40;;;2.17;;
5819;SDS011;2936;47.348;9.640;2023-09-18T01:12:01;10.07;;;2.23;;
5819;SDS011;2936;47.348;9.640;2023-09-18T01:14:33;2.00;;;1.90;;
5819;SDS011;2936;47.348;9.640;2023-09-18T01:17:02;4.30;;;2.37;;
5819;SDS011;2936;47.348;9.640;2023-09-18T01:19:37;10.47;;;2.40;;
5819;SDS011;2936;47.348;9.640;2023-09-18T01:22:07;2.60;;;1.90;;
5819;SDS011;2936;47.348;9.640;2023-09-18T01:24:37;8.27;;;3.13;;
5819;SDS011;2936;47.348;9.640;2023-09-18T01:27:06;2.23;;;2.00;;
5819;SDS011;2936;47.348;9.640;2023-09-18T01:29:34;5.13;;;2.30;;
5819;SDS011;2936;47.348;9.640;2023-09-18T01:32:02;6.67;;;1.67;;
5819;SDS011;2936;47.348;9.640;2023-09-18T01:34:31;15.37;;;2.40;;
5819;SDS011;2936;47.348;9.640;2023-09-18T01:37:01;3.50;;;1.80;;
5819;SDS011;2936;47.348;9.640;2023-09-18T01:39:31;12.13;;;2.93;;
5819;SDS011;2936;47.348;9.640;2023-09-18T01:42:01;2.83;;;2.13;;
5819;SDS011;2936;47.348;9.640;2023-09-18T01:44:30;30.73;;;3.37;;
5819;SDS011;2936;47.348;9.640;2023-09-18T01:46:59;6.60;;;2.40;;
5819;SDS011;2936;47.348;9.640;2023-09-18T01:49:27;8.53;;;3.23;;
5819;SDS011;2936;47.348;9.640;2023-09-18T01:51:55;2.70;;;2.50;;
5819;SDS011;2936;47.348;9.640;2023-09-18T01:54:22;10.20;;;2.70;;
5819;SDS011;2936;47.348;9.640;2023-09-18T01:56:50;12.00;;;2.80;;
5819;SDS011;2936;47.348;9.640;2023-09-18T01:59:19;2.23;;;2.03;;
5819;SDS011;2936;47.348;9.640;2023-09-18T02:01:47;13.73;;;2.77;;
5819;SDS011;2936;47.348;9.640;2023-09-18T02:04:15;10.67;;;2.23;;
5819;SDS011;2936;47.348;9.640;2023-09-18T02:06:43;4.90;;;2.10;;
5819;SDS011;2936;47.348;9.640;2023-09-18T02:09:11;10.00;;;2.30;;
5819;SDS011;2936;47.348;9.640;2023-09-18T02:11:39;7.70;;;3.40;;
5819;SDS011;2936;47.348;9.640;2023-09-18T02:14:07;13.60;;;2.73;;
5819;SDS011;2936;47.348;9.640;2023-09-18T02:16:37;3.00;;;2.33;;
5819;SDS011;2936;47.348;9.640;2023-09-18T02:19:07;3.07;;;2.17;;
5819;SDS011;2936;47.348;9.640;2023-09-18T02:21:35;11.87;;;2.63;;
5819;SDS011;2936;47.348;9.640;2023-09-18T02:24:03;34.03;;;3.50;;
5819;SDS011;2936;47.348;9.640;2023-09-18T02:26:30;2.80;;;2.07;;
5819;SDS011;2936;47.348;9.640;2023-09-18T02:28:58;13.50;;;3.60;;
5819;SDS011;2936;47.348;9.640;2023-09-18T02:31:27;12.60;;;3.37;;
5819;SDS011;2936;47.348;9.640;2023-09-18T02:33:56;16.10;;;3.37;;
5819;SDS011;2936;47.348;9.640;2023-09-18T02:36:23;14.57;;;2.97;;
5819;SDS011;2936;47.348;9.640;2023-09-18T02:38:51;3.33;;;2.90;;
5819;SDS011;2936;47.348;9.640;2023-09-18T02:41:19;2.10;;;2.00;;
5819;SDS011;2936;47.348;9.640;2023-09-18T02:43:47;13.50;;;3.47;;
5819;SDS011;2936;47.348;9.640;2023-09-18T02:46:14;13.53;;;3.27;;
5819;SDS011;2936;47.348;9.640;2023-09-18T02:48:42;6.93;;;2.97;;
5819;SDS011;2936;47.348;9.640;2023-09-18T02:51:13;18.07;;;2.63;;
5819;SDS011;2936;47.348;9.640;2023-09-18T02:53:41;10.90;;;2.30;;
5819;SDS011;2936;47.348;9.640;2023-09-18T02:56:09;5.77;;;2.67;;
5819;SDS011;2936;47.348;9.640;2023-09-18T02:58:37;5.27;;;2.77;;
5819;SDS011;2936;47.348;9.640;2023-09-18T03:01:06;5.70;;;3.67;;
5819;SDS011;2936;47.348;9.640;2023-09-18T03:03:34;38.60;;;3.67;;
5819;SDS011;2936;47.348;9.640;2023-09-18T03:06:02;2.97;;;2.03;;
5819;SDS011;2936;47.348;9.640;2023-09-18T03:08:32;26.77;;;4.30;;
5819;SDS011;2936;47.348;9.640;2023-09-18T03:11:00;9.53;;;4.00;;
5819;SDS011;2936;47.348;9.640;2023-09-18T03:13:28;5.47;;;3.40;;
5819;SDS011;2936;47.348;9.640;2023-09-18T03:15:56;8.17;;;2.60;;
5819;SDS011;2936;47.348;9.640;2023-09-18T03:18:24;12.23;;;3.17;;
5819;SDS011;2936;47.348;9.640;2023-09-18T03:20:51;11.77;;;3.57;;
5819;SDS011;2936;47.348;9.640;2023-09-18T03:23:20;7.93;;;3.30;;
5819;SDS011;2936;47.348;9.640;2023-09-18T03:25:49;6.10;;;2.70;;
5819;SDS011;2936;47.348;9.640;2023-09-18T03:28:16;8.60;;;3.40;;
5819;SDS011;2936;47.348;9.640;2023-09-18T03:30:44;7.07;;;3.37;;
5819;SDS011;2936;47.348;9.640;2023-09-18T03:33:11;21.63;;;4.23;;
5819;SDS011;2936;47.348;9.640;2023-09-18T03:35:46;24.03;;;3.13;;
5819;SDS011;2936;47.348;9.640;2023-09-18T03:38:14;18.27;;;3.73;;
5819;SDS011;2936;47.348;9.640;2023-09-18T03:40:42;7.50;;;3.13;;
5819;SDS011;2936;47.348;9.640;2023-09-18T03:43:12;51.47;;;5.03;;
5819;SDS011;2936;47.348;9.640;2023-09-18T03:45:39;18.93;;;3.90;;
5819;SDS011;2936;47.348;9.640;2023-09-18T03:48:07;7.03;;;3.93;;
5819;SDS011;2936;47.348;9.640;2023-09-18T03:50:35;8.33;;;3.53;;
5819;SDS011;2936;47.348;9.640;2023-09-18T03:53:03;21.67;;;3.83;;
5819;SDS011;2936;47.348;9.640;2023-09-18T03:55:31;14.73;;;2.87;;
5819;SDS011;2936;47.348;9.640;2023-09-18T03:57:59;6.80;;;3.30;;
5819;SDS011;2936;47.348;9.640;2023-09-18T04:00:32;5.07;;;3.00;;
5819;SDS011;2936;47.348;9.640;2023-09-18T04:02:59;14.73;;;4.13;;
5819;SDS011;2936;47.348;9.640;2023-09-18T04:05:27;10.03;;;3.30;;
5819;SDS011;2936;47.348;9.640;2023-09-18T04:07:55;30.30;;;3.80;;
5819;SDS011;2936;47.348;9.640;2023-09-18T04:10:23;13.40;;;3.53;;
5819;SDS011;2936;47.348;9.640;2023-09-18T04:12:51;29.57;;;3.73;;
5819;SDS011;2936;47.348;9.640;2023-09-18T04:15:19;6.17;;;2.50;;
5819;SDS011;2936;47.348;9.640;2023-09-18T04:17:49;22.97;;;4.90;;
5819;SDS011;2936;47.348;9.640;2023-09-18T04:20:17;10.67;;;3.37;;
5819;SDS011;2936;47.348;9.640;2023-09-18T04:22:45;11.43;;;3.83;;
5819;SDS011;2936;47.348;9.640;2023-09-18T04:25:15;4.83;;;2.07;;
5819;SDS011;2936;47.348;9.640;2023-09-18T04:27:44;3.90;;;3.33;;
5819;SDS011;2936;47.348;9.640;2023-09-18T04:30:12;6.43;;;3.10;;
5819;SDS011;2936;47.348;9.640;2023-09-18T04:32:40;2.80;;;2.63;;
5819;SDS011;2936;47.348;9.640;2023-09-18T04:35:09;2.67;;;2.57;;
5819;SDS011;2936;47.348;9.640;2023-09-18T04:37:37;3.53;;;2.43;;
5819;SDS011;2936;47.348;9.640;2023-09-18T04:40:06;10.70;;;2.70;;
5819;SDS011;2936;47.348;9.640;2023-09-18T04:42:37;8.93;;;2.33;;
5819;SDS011;2936;47.348;9.640;2023-09-18T04:45:05;7.60;;;2.30;;
5819;SDS011;2936;47.348;9.640;2023-09-18T04:47:34;2.73;;;2.53;;
5819;SDS011;2936;47.348;9.640;2023-09-18T04:50:01;7.23;;;3.67;;
5819;SDS011;2936;47.348;9.640;2023-09-18T04:52:36;2.13;;;2.03;;
5819;SDS011;2936;47.348;9.640;2023-09-18T04:55:06;2.53;;;2.30;;
5819;SDS011;2936;47.348;9.640;2023-09-18T04:57:34;10.57;;;2.63;;
5819;SDS011;2936;47.348;9.640;2023-09-18T05:00:01;2.83;;;2.03;;
5819;SDS011;2936;47.348;9.640;2023-09-18T05:02:33;12.93;;;2.60;;
5819;SDS011;2936;47.348;9.640;2023-09-18T05:05:01;1.87;;;1.77;;
5819;SDS011;2936;47.348;9.640;2023-09-18T05:07:29;2.47;;;2.27;;
5819;SDS011;2936;47.348;9.640;2023-09-18T05:09:59;13.70;;;1.90;;
5819;SDS011;2936;47.348;9.640;2023-09-18T05:12:27;2.23;;;2.00;;
5819;SDS011;2936;47.348;9.640;2023-09-18T05:14:54;24.20;;;3.30;;
5819;SDS011;2936;47.348;9.640;2023-09-18T05:17:27;8.30;;;2.40;;
5819;SDS011;2936;47.348;9.640;2023-09-18T05:20:06;5.90;;;2.90;;
5819;SDS011;2936;47.348;9.640;2023-09-18T05:22:37;5.10;;;2.50;;
5819;SDS011;2936;47.348;9.640;2023-09-18T05:25:07;1.77;;;1.67;;
5819;SDS011;2936;47.348;9.640;2023-09-18T05:27:35;2.30;;;2.10;;
5819;SDS011;2936;47.348;9.640;2023-09-18T05:30:10;10.03;;;1.97;;
5819;SDS011;2936;47.348;9.640;2023-09-18T05:32:38;6.60;;;2.00;;
5819;SDS011;2936;47.348;9.640;2023-09-18T05:35:07;2.90;;;1.90;;
5819;SDS011;2936;47.348;9.640;2023-09-18T05:37:38;2.30;;;2.00;;
5819;SDS011;2936;47.348;9.640;2023-09-18T05:40:09;2.00;;;1.90;;
5819;SDS011;2936;47.348;9.640;2023-09-18T05:42:37;11.60;;;3.63;;
5819;SDS011;2936;47.348;9.640;2023-09-18T05:45:04;3.10;;;1.93;;
5819;SDS011;2936;47.348;9.640;2023-09-18T05:47:32;2.20;;;2.10;;
5819;SDS011;2936;47.348;9.640;2023-09-18T05:50:01;5.07;;;1.90;;
5819;SDS011;2936;47.348;9.640;2023-09-18T05:52:31;5.23;;;2.10;;
5819;SDS011;2936;47.348;9.640;2023-09-18T05:54:59;9.97;;;2.37;;
5819;SDS011;2936;47.348;9.640;2023-09-18T05:57:28;5.40;;;2.47;;
5819;SDS011;2936;47.348;9.640;2023-09-18T05:59:55;2.50;;;1.90;;
5819;SDS011;2936;47.348;9.640;2023-09-18T06:02:22;1.93;;;1.83;;
5819;SDS011;2936;47.348;9.640;2023-09-18T06:04:53;8.30;;;3.00;;
5819;SDS011;2936;47.348;9.640;2023-09-18T06:07:23;11.50;;;2.43;;
5819;SDS011;2936;47.348;9.640;2023-09-18T06:09:52;9.27;;;3.10;;
5819;SDS011;2936;47.348;9.640;2023-09-18T06:12:19;5.33;;;3.07;;
5819;SDS011;2936;47.348;9.640;2023-09-18T06:14:48;8.30;;;2.50;;
5819;SDS011;2936;47.348;9.640;2023-09-18T06:17:16;4.93;;;2.73;;
5819;SDS011;2936;47.348;9.640;2023-09-18T06:19:44;2.90;;;2.00;;
5819;SDS011;2936;47.348;9.640;2023-09-18T06:22:12;4.73;;;3.10;;
5819;SDS011;2936;47.348;9.640;2023-09-18T06:24:40;10.20;;;2.83;;
5819;SDS011;2936;47.348;9.640;2023-09-18T06:27:07;4.27;;;3.30;;
5819;SDS011;2936;47.348;9.640;2023-09-18T06:29:36;14.27;;;2.43;;
5819;SDS011;2936;47.348;9.640;2023-09-18T06:32:05;4.50;;;2.57;;
5819;SDS011;2936;47.348;9.640;2023-09-18T06:34:33;2.07;;;1.97;;
5819;SDS011;2936;47.348;9.640;2023-09-18T06:37:02;3.77;;;2.83;;
5819;SDS011;2936;47.348;9.640;2023-09-18T06:39:33;15.00;;;2.00;;
5819;SDS011;2936;47.348;9.640;2023-09-18T06:42:02;4.10;;;2.63;;
5819;SDS011;2936;47.348;9.640;2023-09-18T06:44:29;5.23;;;2.77;;
5819;SDS011;2936;47.348;9.640;2023-09-18T06:46:57;19.33;;;3.97;;
5819;SDS011;2936;47.348;9.640;2023-09-18T06:49:26;5.10;;;2.70;;
5819;SDS011;2936;47.348;9.640;2023-09-18T06:51:53;9.23;;;2.80;;
5819;SDS011;2936;47.348;9.640;2023-09-18T06:54:21;4.07;;;2.30;;
5819;SDS011;2936;47.348;9.640;2023-09-18T06:56:48;3.47;;;3.17;;
5819;SDS011;2936;47.348;9.640;2023-09-18T06:59:15;6.20;;;3.33;;
5819;SDS011;2936;47.348;9.640;2023-09-18T07:01:43;4.40;;;2.97;;
5819;SDS011;2936;47.348;9.640;2023-09-18T07:04:10;6.67;;;2.07;;
5819;SDS011;2936;47.348;9.640;2023-09-18T07:19:32;3.47;;;2.77;;
5819;SDS011;2936;47.348;9.640;2023-09-18T07:22:01;5.80;;;2.50;;
5819;SDS011;2936;47.348;9.640;2023-09-18T07:24:29;14.57;;;3.17;;
5819;SDS011;2936;47.348;9.640;2023-09-18T07:26:57;18.07;;;3.20;;
5819;SDS011;2936;47.348;9.640;2023-09-18T07:29:24;23.53;;;4.07;;
5819;SDS011;2936;47.348;9.640;2023-09-18T07:31:52;4.33;;;2.30;;
5819;SDS011;2936;47.348;9.640;2023-09-18T07:34:20;6.30;;;2.73;;
5819;SDS011;2936;47.348;9.640;2023-09-18T07:36:49;5.90;;;2.40;;
5819;SDS011;2936;47.348;9.640;2023-09-18T07:39:20;3.63;;;1.87;;
5819;SDS011;2936;47.348;9.640;2023-09-18T07:41:47;6.60;;;4.00;;
5819;SDS011;2936;47.348;9.640;2023-09-18T07:44:18;3.03;;;2.47;;
5819;SDS011;2936;47.348;9.640;2023-09-18T07:46:46;12.33;;;3.57;;
5819;SDS011;2936;47.348;9.640;2023-09-18T07:49:13;25.53;;;4.63;;
5819;SDS011;2936;47.348;9.640;2023-09-18T07:51:41;9.33;;;3.97;;
5819;SDS011;2936;47.348;9.640;2023-09-18T07:54:13;4.97;;;3.00;;
5819;SDS011;2936;47.348;9.640;2023-09-18T07:56:41;7.53;;;2.53;;
5819;SDS011;2936;47.348;9.640;2023-09-18T07:59:09;4.80;;;2.47;;
5819;SDS011;2936;47.348;9.640;2023-09-18T08:01:39;10.47;;;2.50;;
5819;SDS011;2936;47.348;9.640;2023-09-18T08:04:07;5.63;;;3.10;;
5819;SDS011;2936;47.348;9.640;2023-09-18T08:06:35;17.63;;;2.87;;
5819;SDS011;2936;47.348;9.640;2023-09-18T08:09:03;5.10;;;2.50;;
5819;SDS011;2936;47.348;9.640;2023-09-18T08:11:32;8.27;;;3.60;;
5819;SDS011;2936;47.348;9.640;2023-09-18T08:14:01;7.07;;;2.60;;
5819;SDS011;2936;47.348;9.640;2023-09-18T08:16:29;13.67;;;3.10;;
5819;SDS011;2936;47.348;9.640;2023-09-18T08:18:58;10.10;;;2.53;;
5819;SDS011;2936;47.348;9.640;2023-09-18T08:21:26;22.90;;;3.50;;
5819;SDS011;2936;47.348;9.640;2023-09-18T08:23:56;11.13;;;3.87;;
5819;SDS011;2936;47.348;9.640;2023-09-18T08:26:23;5.20;;;3.43;;
5819;SDS011;2936;47.348;9.640;2023-09-18T08:28:55;3.43;;;2.43;;
5819;SDS011;2936;47.348;9.640;2023-09-18T08:31:22;6.17;;;3.33;;
5819;SDS011;2936;47.348;9.640;2023-09-18T08:33:52;6.03;;;3.80;;
5819;SDS011;2936;47.348;9.640;2023-09-18T08:36:20;2.80;;;2.60;;
5819;SDS011;2936;47.348;9.640;2023-09-18T08:38:48;6.57;;;3.10;;
5819;SDS011;2936;47.348;9.640;2023-09-18T08:41:16;4.93;;;1.90;;
5819;SDS011;2936;47.348;9.640;2023-09-18T08:43:46;3.23;;;2.80;;
5819;SDS011;2936;47.348;9.640;2023-09-18T08:46:16;3.30;;;2.40;;
5819;SDS011;2936;47.348;9.640;2023-09-18T08:48:46;2.50;;;2.30;;
5819;SDS011;2936;47.348;9.640;2023-09-18T08:51:14;2.27;;;1.97;;
5819;SDS011;2936;47.348;9.640;2023-09-18T08:53:44;2.10;;;2.00;;
5819;SDS011;2936;47.348;9.640;2023-09-18T08:56:13;7.90;;;2.87;;
5819;SDS011;2936;47.348;9.640;2023-09-18T08:58:40;3.47;;;2.83;;
5819;SDS011;2936;47.348;9.640;2023-09-18T09:01:09;8.73;;;2.60;;
5819;SDS011;2936;47.348;9.640;2023-09-18T09:03:39;9.23;;;2.73;;
5819;SDS011;2936;47.348;9.640;2023-09-18T09:06:07;15.90;;;3.10;;
5819;SDS011;2936;47.348;9.640;2023-09-18T09:08:37;10.03;;;3.03;;
5819;SDS011;2936;47.348;9.640;2023-09-18T09:11:04;3.20;;;2.63;;
5819;SDS011;2936;47.348;9.640;2023-09-18T09:13:32;13.20;;;3.67;;
5819;SDS011;2936;47.348;9.640;2023-09-18T09:16:00;1.20;;;1.20;;
5819;SDS011;2936;47.348;9.640;2023-09-18T09:18:28;1.60;;;1.50;;
5819;SDS011;2936;47.348;9.640;2023-09-18T09:21:01;1.70;;;1.60;;
5819;SDS011;2936;47.348;9.640;2023-09-18T09:23:45;1.80;;;1.70;;
5819;SDS011;2936;47.348;9.640;2023-09-18T09:26:16;5.63;;;2.37;;
5819;SDS011;2936;47.348;9.640;2023-09-18T09:28:43;7.97;;;2.40;;
5819;SDS011;2936;47.348;9.640;2023-09-18T09:31:11;2.00;;;1.90;;
5819;SDS011;2936;47.348;9.640;2023-09-18T09:33:40;5.23;;;2.60;;
5819;SDS011;2936;47.348;9.640;2023-09-18T09:36:20;3.90;;;2.73;;
5819;SDS011;2936;47.348;9.640;2023-09-18T09:38:48;2.07;;;1.97;;
5819;SDS011;2936;47.348;9.640;2023-09-18T09:41:20;7.07;;;1.97;;
5819;SDS011;2936;47.348;9.640;2023-09-18T09:43:53;4.70;;;1.70;;
5819;SDS011;2936;47.348;9.640;2023-09-18T09:46:21;4.93;;;2.70;;
5819;SDS011;2936;47.348;9.640;2023-09-18T09:49:00;1.60;;;1.50;;
5819;SDS011;2936;47.348;9.640;2023-09-18T09:51:30;11.20;;;2.37;;
5819;SDS011;2936;47.348;9.640;2023-09-18T09:53:57;2.50;;;2.40;;
5819;SDS011;2936;47.348;9.640;2023-09-18T09:56:39;2.90;;;1.63;;
5819;SDS011;2936;47.348;9.640;2023-09-18T09:59:07;1.23;;;1.20;;
5819;SDS011;2936;47.348;9.640;2023-09-18T10:01:37;3.13;;;1.80;;
5819;SDS011;2936;47.348;9.640;2023-09-18T10:04:06;3.00;;;2.80;;
5819;SDS011;2936;47.348;9.640;2023-09-18T10:06:37;4.47;;;2.07;;
5819;SDS011;2936;47.348;9.640;2023-09-18T10:09:06;1.40;;;1.37;;
5819;SDS011;2936;47.348;9.640;2023-09-18T10:11:37;1.87;;;1.80;;
5819;SDS011;2936;47.348;9.640;2023-09-18T10:14:12;2.50;;;2.10;;
5819;SDS011;2936;47.348;9.640;2023-09-18T10:16:44;3.53;;;2.00;;
5819;SDS011;2936;47.348;9.640;2023-09-18T10:19:14;2.20;;;1.90;;
5819;SDS011;2936;47.348;9.640;2023-09-18T10:21:50;1.77;;;1.67;;
5819;SDS011;2936;47.348;9.640;2023-09-18T10:24:22;1.80;;;1.70;;
5819;SDS011;2936;47.348;9.640;2023-09-18T10:26:53;1.60;;;1.60;;
5819;SDS011;2936;47.348;9.640;2023-09-18T10:29:23;4.13;;;1.60;;
5819;SDS011;2936;47.348;9.640;2023-09-18T10:31:53;1.67;;;1.57;;
5819;SDS011;2936;47.348;9.640;2023-09-18T10:34:22;1.63;;;1.53;;
5819;SDS011;2936;47.348;9.640;2023-09-18T10:36:51;1.30;;;1.30;;
5819;SDS011;2936;47.348;9.640;2023-09-18T10:39:22;1.33;;;1.33;;
5819;SDS011;2936;47.348;9.640;2023-09-18T10:41:51;1.90;;;1.80;;
5819;SDS011;2936;47.348;9.640;2023-09-18T10:44:19;1.87;;;1.73;;
5819;SDS011;2936;47.348;9.640;2023-09-18T10:46:47;3.03;;;2.07;;
5819;SDS011;2936;47.348;9.640;2023-09-18T10:49:17;1.20;;;1.10;;
5819;SDS011;2936;47.348;9.640;2023-09-18T10:51:46;1.57;;;1.47;;
5819;SDS011;2936;47.348;9.640;2023-09-18T10:54:20;1.73;;;1.63;;
5819;SDS011;2936;47.348;9.640;2023-09-18T10:56:48;2.30;;;2.10;;
5819;SDS011;2936;47.348;9.640;2023-09-18T10:59:16;1.20;;;1.20;;
5819;SDS011;2936;47.348;9.640;2023-09-18T11:01:44;2.50;;;1.73;;
5819;SDS011;2936;47.348;9.640;2023-09-18T11:04:13;1.50;;;1.43;;
5819;SDS011;2936;47.348;9.640;2023-09-18T11:09:32;1.20;;;1.10;;
5819;SDS011;2936;47.348;9.640;2023-09-18T11:12:04;1.40;;;1.40;;
5819;SDS011;2936;47.348;9.640;2023-09-18T11:17:29;1.70;;;1.40;;
5819;SDS011;2936;47.348;9.640;2023-09-18T11:20:15;1.00;;;1.00;;
5819;SDS011;2936;47.348;9.640;2023-09-18T11:23:10;1.70;;;1.60;;
5819;SDS011;2936;47.348;9.640;2023-09-18T11:25:44;3.00;;;1.30;;
5819;SDS011;2936;47.348;9.640;2023-09-18T11:28:14;0.90;;;0.90;;
5819;SDS011;2936;47.348;9.640;2023-09-18T11:30:48;1.20;;;1.10;;
5819;SDS011;2936;47.348;9.640;2023-09-18T11:33:16;3.17;;;2.20;;
5819;SDS011;2936;47.348;9.640;2023-09-18T11:36:02;1.73;;;1.67;;
5819;SDS011;2936;47.348;9.640;2023-09-18T11:38:33;0.83;;;0.83;;
5819;SDS011;2936;47.348;9.640;2023-09-18T11:41:22;1.17;;;1.17;;
5819;SDS011;2936;47.348;9.640;2023-09-18T11:43:52;1.50;;;1.37;;
5819;SDS011;2936;47.348;9.640;2023-09-18T11:46:21;2.07;;;1.27;;
5819;SDS011;2936;47.348;9.640;2023-09-18T11:48:50;1.50;;;1.33;;
5819;SDS011;2936;47.348;9.640;2023-09-18T11:51:22;1.07;;;1.07;;
5819;SDS011;2936;47.348;9.640;2023-09-18T11:53:52;1.40;;;1.30;;
5819;SDS011;2936;47.348;9.640;2023-09-18T11:56:23;1.00;;;1.00;;
5819;SDS011;2936;47.348;9.640;2023-09-18T11:58:51;0.90;;;0.90;;
5819;SDS011;2936;47.348;9.640;2023-09-18T12:01:20;1.00;;;1.00;;
5819;SDS011;2936;47.348;9.640;2023-09-18T12:03:53;1.10;;;1.10;;
5819;SDS011;2936;47.348;9.640;2023-09-18T12:06:21;1.53;;;0.87;;
5819;SDS011;2936;47.348;9.640;2023-09-18T12:08:48;1.63;;;1.17;;
5819;SDS011;2936;47.348;9.640;2023-09-18T12:11:30;0.90;;;0.90;;
5819;SDS011;2936;47.348;9.640;2023-09-18T12:14:04;1.00;;;1.00;;
5819;SDS011;2936;47.348;9.640;2023-09-18T12:16:32;1.93;;;1.00;;
5819;SDS011;2936;47.348;9.640;2023-09-18T12:19:04;1.00;;;1.00;;
5819;SDS011;2936;47.348;9.640;2023-09-18T12:21:33;0.90;;;0.90;;
5819;SDS011;2936;47.348;9.640;2023-09-18T12:24:12;1.00;;;1.00;;
5819;SDS011;2936;47.348;9.640;2023-09-18T12:26:42;1.00;;;1.00;;
5819;SDS011;2936;47.348;9.640;2023-09-18T12:29:10;1.20;;;1.20;;
5819;SDS011;2936;47.348;9.640;2023-09-18T12:31:37;2.17;;;1.13;;
5819;SDS011;2936;47.348;9.640;2023-09-18T12:34:11;1.10;;;1.10;;
5819;SDS011;2936;47.348;9.640;2023-09-18T12:36:43;0.80;;;0.80;;
5819;SDS011;2936;47.348;9.640;2023-09-18T12:39:12;1.63;;;1.53;;
5819;SDS011;2936;47.348;9.640;2023-09-18T12:41:43;0.80;;;0.80;;
5819;SDS011;2936;47.348;9.640;2023-09-18T12:44:12;0.90;;;0.80;;
5819;SDS011;2936;47.348;9.640;2023-09-18T12:46:42;0.80;;;0.80;;
5819;SDS011;2936;47.348;9.640;2023-09-18T12:49:17;1.43;;;1.33;;
5819;SDS011;2936;47.348;9.640;2023-09-18T12:51:53;3.43;;;1.30;;
5819;SDS011;2936;47.348;9.640;2023-09-18T12:54:21;1.00;;;1.00;;
5819;SDS011;2936;47.348;9.640;2023-09-18T12:56:51;1.33;;;1.33;;
5819;SDS011;2936;47.348;9.640;2023-09-18T12:59:19;1.17;;;1.10;;
5819;SDS011;2936;47.348;9.640;2023-09-18T13:01:48;2.23;;;1.30;;
5819;SDS011;2936;47.348;9.640;2023-09-18T13:04:19;2.93;;;1.07;;
5819;SDS011;2936;47.348;9.640;2023-09-18T13:06:47;1.30;;;1.20;;
5819;SDS011;2936;47.348;9.640;2023-09-18T13:09:15;1.97;;;1.43;;
5819;SDS011;2936;47.348;9.640;2023-09-18T13:11:55;3.70;;;1.00;;
5819;SDS011;2936;47.348;9.640;2023-09-18T13:14:23;0.90;;;0.90;;
5819;SDS011;2936;47.348;9.640;2023-09-18T13:16:52;0.90;;;0.90;;
5819;SDS011;2936;47.348;9.640;2023-09-18T13:19:20;1.97;;;1.13;;
5819;SDS011;2936;47.348;9.640;2023-09-18T13:21:58;1.17;;;1.17;;
5819;SDS011;2936;47.348;9.640;2023-09-18T13:24:30;0.97;;;0.97;;
5819;SDS011;2936;47.348;9.640;2023-09-18T13:27:00;0.83;;;0.83;;
5819;SDS011;2936;47.348;9.640;2023-09-18T13:29:28;0.90;;;0.90;;
5819;SDS011;2936;47.348;9.640;2023-09-18T13:31:57;1.10;;;1.00;;
5819;SDS011;2936;47.348;9.640;2023-09-18T13:34:26;1.17;;;1.17;;
5819;SDS011;2936;47.348;9.640;2023-09-18T13:37:03;0.90;;;0.90;;
5819;SDS011;2936;47.348;9.640;2023-09-18T13:39:30;1.90;;;1.80;;
5819;SDS011;2936;47.348;9.640;2023-09-18T13:42:00;0.90;;;0.90;;
5819;SDS011;2936;47.348;9.640;2023-09-18T13:44:28;1.70;;;1.60;;
5819;SDS011;2936;47.348;9.640;2023-09-18T13:46:56;1.10;;;1.10;;
5819;SDS011;2936;47.348;9.640;2023-09-18T13:49:24;1.50;;;1.40;;
5819;SDS011;2936;47.348;9.640;2023-09-18T13:51:52;0.90;;;0.90;;
5819;SDS011;2936;47.348;9.640;2023-09-18T13:54:19;0.90;;;0.90;;
5819;SDS011;2936;47.348;9.640;2023-09-18T13:56:47;1.20;;;1.10;;
5819;SDS011;2936;47.348;9.640;2023-09-18T13:59:16;1.20;;;1.20;;
5819;SDS011;2936;47.348;9.640;2023-09-18T14:01:43;0.90;;;0.90;;
5819;SDS011;2936;47.348;9.640;2023-09-18T14:04:11;1.20;;;1.10;;
5819;SDS011;2936;47.348;9.640;2023-09-18T14:06:39;0.80;;;0.80;;
5819;SDS011;2936;47.348;9.640;2023-09-18T14:09:07;0.87;;;0.87;;
5819;SDS011;2936;47.348;9.640;2023-09-18T14:11:35;4.30;;;1.23;;
5819;SDS011;2936;47.348;9.640;2023-09-18T14:14:03;0.90;;;0.90;;
5819;SDS011;2936;47.348;9.640;2023-09-18T14:16:32;0.90;;;0.90;;
5819;SDS011;2936;47.348;9.640;2023-09-18T14:19:00;1.07;;;1.07;;
5819;SDS011;2936;47.348;9.640;2023-09-18T14:21:27;0.80;;;0.80;;
5819;SDS011;2936;47.348;9.640;2023-09-18T14:23:59;0.97;;;0.97;;
5819;SDS011;2936;47.348;9.640;2023-09-18T14:26:28;1.00;;;1.00;;
5819;SDS011;2936;47.348;9.640;2023-09-18T14:28:56;0.80;;;0.80;;
5819;SDS011;2936;47.348;9.640;2023-09-18T14:31:24;0.90;;;0.90;;
5819;SDS011;2936;47.348;9.640;2023-09-18T14:33:53;1.10;;;1.10;;
5819;SDS011;2936;47.348;9.640;2023-09-18T14:36:25;0.90;;;0.90;;
5819;SDS011;2936;47.348;9.640;2023-09-18T14:38:55;1.20;;;1.20;;
5819;SDS011;2936;47.348;9.640;2023-09-18T14:41:23;0.90;;;0.90;;
5819;SDS011;2936;47.348;9.640;2023-09-18T14:43:51;1.27;;;1.00;;
5819;SDS011;2936;47.348;9.640;2023-09-18T14:46:22;1.00;;;1.00;;
5819;SDS011;2936;47.348;9.640;2023-09-18T14:48:51;1.00;;;1.00;;
5819;SDS011;2936;47.348;9.640;2023-09-18T14:51:20;0.90;;;0.90;;
5819;SDS011;2936;47.348;9.640;2023-09-18T14:53:48;1.20;;;1.10;;
5819;SDS011;2936;47.348;9.640;2023-09-18T14:56:16;1.13;;;1.10;;
5819;SDS011;2936;47.348;9.640;2023-09-18T14:58:44;1.03;;;1.03;;
5819;SDS011;2936;47.348;9.640;2023-09-18T15:01:11;0.87;;;0.87;;
5819;SDS011;2936;47.348;9.640;2023-09-18T15:03:39;1.30;;;1.20;;
5819;SDS011;2936;47.348;9.640;2023-09-18T15:06:07;5.40;;;1.10;;
5819;SDS011;2936;47.348;9.640;2023-09-18T15:08:36;1.67;;;1.10;;
5819;SDS011;2936;47.348;9.640;2023-09-18T15:11:05;0.93;;;0.93;;
5819;SDS011;2936;47.348;9.640;2023-09-18T15:13:33;1.00;;;1.00;;
5819;SDS011;2936;47.348;9.640;2023-09-18T15:16:01;1.10;;;1.10;;
5819;SDS011;2936;47.348;9.640;2023-09-18T15:18:29;1.27;;;1.17;;
5819;SDS011;2936;47.348;9.640;2023-09-18T15:20:57;1.07;;;1.07;;
5819;SDS011;2936;47.348;9.640;2023-09-18T15:23:27;0.83;;;0.83;;
5819;SDS011;2936;47.348;9.640;2023-09-18T15:25:59;1.20;;;1.20;;
5819;SDS011;2936;47.348;9.640;2023-09-18T15:28:29;1.47;;;1.37;;
5819;SDS011;2936;47.348;9.640;2023-09-18T15:30:56;2.47;;;1.23;;
5819;SDS011;2936;47.348;9.640;2023-09-18T15:33:25;1.00;;;1.00;;
5819;SDS011;2936;47.348;9.640;2023-09-18T15:35:53;0.90;;;0.90;;
5819;SDS011;2936;47.348;9.640;2023-09-18T15:38:21;0.80;;;0.80;;
5819;SDS011;2936;47.348;9.640;2023-09-18T15:40:52;1.20;;;1.10;;
5819;SDS011;2936;47.348;9.640;2023-09-18T15:43:22;1.07;;;1.07;;